Thunder radar more information blitzortung!


Radar de pluja more information rain snow radar


Visita la nostra xarxa de llocs de meteo:

Template documentation
and downloads

And another site



Wind From: 11-12-2017 11:00 Until: 14:59 warning for: Wind Level: Yellow info button

Pagina Historial Weather Underground text

Diari Resum May 10, 2017 Unitats:  Imperial    Mètric   Tant
« Previous Dia
SegĂźent Dia »
Diari Setmana Mensual Anual Personalitzada
  Maxima: Minima: Media:
Temperatura: 72.7 °F 54.9 °F 64 °F
Punt de rosada: 54.1 °F 48.2 °F 52 °F
Humitat: 82 % 49 % 66 %
Wind Speed: 13.2 mph 0 mph 5.8 mph
RĂ fegues de vent: 13.2 mph - -
Vent:- - East
Pression baro: 29.8 in 29.6 in -
Precipitacions: 0 in    
Historical Graphs
 
 
Dades de taula per May 10, 2017
Temps Temperatura Punt de rosada Pression baro Vent Wind Speed RĂ fegues de vent Humitat Rainfall Rate (Hourly)
00:00 56.3 °F 50.5 °F 29.7 in NE 1 mph 2 mph 81 % 0 in
00:04 59.9 °F 52.3 °F 29.8 in ENE 2.6 mph 2.6 mph 76 % 0 in
00:10 56.1 °F 50.4 °F 29.7 in NE 1 mph 2 mph 81 % 0 in
00:20 55.9 °F 50.2 °F 29.7 in Calm   1 mph 81 % 0 in
00:30 55.8 °F 50 °F 29.7 in Calm   2 mph 81 % 0 in
00:40 55.6 °F 49.8 °F 29.7 in WNW 1 mph 2 mph 81 % 0 in
00:50 55.4 °F 49.6 °F 29.7 in Calm   3 mph 81 % 0 in
01:00 55.2 °F 49.5 °F 29.7 in Calm   2 mph 81 % 0 in
01:10 55.4 °F 49.6 °F 29.7 in Calm   1 mph 81 % 0 in
01:20 55.4 °F 49.6 °F 29.7 in Calm   1 mph 81 % 0 in
01:30 55.4 °F 50 °F 29.7 in Calm   2 mph 82 % 0 in
01:40 54.9 °F 49.5 °F 29.7 in Calm   1 mph 82 % 0 in
01:50 55 °F 49.6 °F 29.7 in Calm     82 % 0 in
02:00 55.2 °F 49.8 °F 29.7 in NNW 2 mph 2 mph 82 % 0 in
02:10 55 °F 49.6 °F 29.7 in NNE 1 mph 3 mph 82 % 0 in
02:20 55 °F 49.6 °F 29.7 in Calm   2 mph 82 % 0 in
02:30 55.4 °F 49.3 °F 29.7 in NNE 1 mph 4 mph 80 % 0 in
02:40 55.6 °F 49.3 °F 29.7 in NNE 3 mph 4 mph 79 % 0 in
02:50 55.8 °F 48.9 °F 29.7 in NNE 3 mph 6 mph 78 % 0 in
03:00 56.1 °F 48.9 °F 29.7 in NE 3 mph 4 mph 77 % 0 in
03:10 56.7 °F 49.3 °F 29.7 in NE 3 mph 4 mph 76 % 0 in
03:20 56.8 °F 49.5 °F 29.7 in NNE 2 mph 4 mph 76 % 0 in
03:30 57 °F 49.3 °F 29.7 in NNE 3 mph 4 mph 75 % 0 in
03:40 57.4 °F 49.3 °F 29.7 in NNE 1 mph 5 mph 74 % 0 in
03:50 57.6 °F 48.9 °F 29.7 in NNE 1 mph 4 mph 73 % 0 in
04:00 57.7 °F 48.7 °F 29.7 in NE 3 mph 5 mph 72 % 0 in
04:10 57.9 °F 48.2 °F 29.7 in NNE 5 mph 6 mph 70 % 0 in
04:20 58.5 °F 48.7 °F 29.7 in NE 2 mph 3 mph 70 % 0 in
04:30 58.6 °F 48.9 °F 29.7 in NE 2 mph 6 mph 70 % 0 in
04:40 59.2 °F 48.9 °F 29.7 in NE 3 mph 3 mph 69 % 0 in
04:50 59.7 °F 49.1 °F 29.7 in NNE 2 mph 4 mph 68 % 0 in
05:00 60.1 °F 49.1 °F 29.7 in NNE 3 mph 4 mph 67 % 0 in
05:10 60.1 °F 48.7 °F 29.7 in NNE 3 mph 6 mph 66 % 0 in
05:20 60.6 °F 49.3 °F 29.7 in NE 1 mph 4 mph 66 % 0 in
10:30 61.3 °F 49.5 °F 29.7 in North 2.3 mph 2.3 mph 65 % 0 in
10:35 61.5 °F 49.3 °F 29.7 in ENE 3.5 mph 3.5 mph 64 % 0 in
10:40 61.7 °F 49.5 °F 29.7 in NNE 2.6 mph 2.6 mph 64 % 0 in
10:45 61.9 °F 49.1 °F 29.7 in NNW 2.2 mph 2.2 mph 63 % 0 in
10:50 62.2 °F 49.8 °F 29.7 in NNE 2.3 mph 2.3 mph 64 % 0 in
10:55 62.1 °F 49.3 °F 29.7 in NNE 2.6 mph 2.6 mph 63 % 0 in
11:00 62.2 °F 49.8 °F 29.7 in NE 2.3 mph 2.3 mph 64 % 0 in
11:05 62.4 °F 49.6 °F 29.7 in NE 2.9 mph 2.9 mph 63 % 0 in
11:06 62.4 °F 49.6 °F 29.7 in NE 2.9 mph 2.9 mph 63 % 0 in
11:11 62.2 °F 49.1 °F 29.7 in East 3.5 mph 3.5 mph 62 % 0 in
11:16 62.8 °F 49.6 °F 29.7 in NE 2.4 mph 2.4 mph 62 % 0 in
11:21 63.1 °F 49.5 °F 29.7 in North 1.2 mph 1.2 mph 61 % 0 in
11:26 63.5 °F 50.2 °F 29.7 in Calm     62 % 0 in
11:31 63.5 °F 49.5 °F 29.7 in ENE 3.5 mph 3.5 mph 60 % 0 in
11:36 63.7 °F 50 °F 29.7 in East 1.2 mph 1.2 mph 61 % 0 in
11:41 64.2 °F 50.5 °F 29.7 in ENE 1.4 mph 1.6 mph 61 % 0 in
11:46 64.8 °F 50.5 °F 29.7 in NNE 2.2 mph   60 % 0 in
11:51 65.5 °F 50.7 °F 29.7 in ENE 3.5 mph 3.5 mph 59 % 0 in
11:56 65.3 °F 50.5 °F 29.7 in ENE 2.4 mph 2.4 mph 59 % 0 in
12:01 66.2 °F 51.1 °F 29.7 in East 2.3 mph 2.3 mph 58 % 0 in
12:06 66.7 °F 50.5 °F 29.7 in ENE 2.3 mph 2.3 mph 56 % 0 in
12:11 67.8 °F 52 °F 29.7 in ENE 3.5 mph 3.5 mph 57 % 0 in
12:16 68.4 °F 51.6 °F 29.7 in ENE 3.6 mph 3.8 mph 55 % 0 in
12:21 68.5 °F 51.3 °F 29.7 in SE 4 mph 4 mph 54 % 0 in
12:26 69.1 °F 51.3 °F 29.7 in ENE 2.3 mph 2.3 mph 53 % 0 in
12:31 68.2 °F 49.5 °F 29.7 in SE 6.9 mph 6.9 mph 51 % 0 in
12:36 68.9 °F 50.5 °F 29.7 in Calm     52 % 0 in
12:41 70.2 °F 51.3 °F 29.7 in NE 4.3 mph 4.3 mph 51 % 0 in
12:46 70.9 °F 51.8 °F 29.7 in SE 5.6 mph 5.6 mph 51 % 0 in
12:51 70 °F 51.1 °F 29.7 in SSE 6.9 mph 6.9 mph 51 % 0 in
12:56 70.2 °F 51.6 °F 29.7 in ESE 4.3 mph 4.3 mph 52 % 0 in
13:01 70.2 °F 51.3 °F 29.7 in East 5.8 mph 5.8 mph 51 % 0 in
13:06 69.8 °F 50.9 °F 29.7 in ENE 5.8 mph 5.8 mph 51 % 0 in
13:11 70 °F 51.1 °F 29.7 in East 5.8 mph 5.8 mph 51 % 0 in
13:16 70.9 °F 51.8 °F 29.7 in SE 6.9 mph 6.9 mph 51 % 0 in
13:21 70.7 °F 51.1 °F 29.7 in ESE 8.1 mph 8.1 mph 50 % 0 in
13:26 70.7 °F 51.1 °F 29.7 in ESE 7.1 mph 7.1 mph 50 % 0 in
13:31 70.7 °F 51.1 °F 29.7 in East 4.6 mph 4.6 mph 50 % 0 in
13:36 71.8 °F 52.2 °F 29.7 in NNE 9.2 mph 9.2 mph 50 % 0 in
13:41 72 °F 52.9 °F 29.7 in ESE 6 mph 6 mph 51 % 0 in
13:46 71.1 °F 50.9 °F 29.7 in ENE 10.4 mph 10.4 mph 49 % 0 in
13:51 70.9 °F 50.7 °F 29.7 in ESE 12.7 mph 12.7 mph 49 % 0 in
13:56 70.9 °F 51.3 °F 29.7 in ESE 10.4 mph 10.4 mph 50 % 0 in
14:01 72.1 °F 53.1 °F 29.7 in East 10 mph 10 mph 51 % 0 in
14:06 72.1 °F 52.5 °F 29.7 in SE 8.1 mph 8.1 mph 50 % 0 in
14:11 72.7 °F 53.4 °F 29.7 in ESE 5.8 mph 5.8 mph 51 % 0 in
14:16 71.2 °F 52.2 °F 29.7 in East 10.4 mph 10.4 mph 51 % 0 in
14:21 71.2 °F 52.2 °F 29.7 in ESE 10.4 mph 10.4 mph 51 % 0 in
14:26 71.4 °F 52.3 °F 29.7 in SE 8.1 mph 8.1 mph 51 % 0 in
14:31 70.9 °F 51.8 °F 29.7 in ESE 10.4 mph 10.4 mph 51 % 0 in
14:36 70.3 °F 51.3 °F 29.7 in ESE 10.4 mph 10.4 mph 51 % 0 in
14:41 70 °F 51.1 °F 29.6 in ENE 8.1 mph 8.1 mph 51 % 0 in
14:46 70 °F 51.4 °F 29.6 in East 12.7 mph 12.7 mph 52 % 0 in
14:51 69.8 °F 51.4 °F 29.6 in East 10.4 mph 10.4 mph 52 % 0 in
14:56 70.5 °F 52 °F 29.7 in ESE 10.4 mph 10.4 mph 52 % 0 in
15:01 70.9 °F 52.3 °F 29.7 in ESE 9.7 mph 9.7 mph 52 % 0 in
15:06 70.3 °F 52 °F 29.7 in ESE 9.2 mph 9.2 mph 52 % 0 in
15:11 70.2 °F 52.2 °F 29.7 in ESE 5.8 mph 5.8 mph 53 % 0 in
15:16 70.2 °F 51.6 °F 29.7 in East 9.2 mph 9.2 mph 52 % 0 in
15:21 70.3 °F 52 °F 29.7 in East 10.4 mph 10.4 mph 52 % 0 in
15:26 70.3 °F 52.3 °F 29.6 in ESE 9.2 mph 9.2 mph 53 % 0 in
15:31 70.2 °F 52.2 °F 29.6 in ESE 11.5 mph 11.5 mph 53 % 0 in
15:36 70.5 °F 52.5 °F 29.6 in ESE 10.9 mph 10.9 mph 53 % 0 in
15:41 70.3 °F 52.9 °F 29.6 in ESE 8.1 mph 8.1 mph 54 % 0 in
15:46 70.2 °F 52.2 °F 29.6 in ESE 11.5 mph 11.5 mph 53 % 0 in
15:51 70.3 °F 52 °F 29.6 in ENE 10.4 mph 10.4 mph 52 % 0 in
15:56 70.7 °F 52.2 °F 29.6 in ENE 10.4 mph 10.4 mph 52 % 0 in
16:01 70.3 °F 52 °F 29.6 in SE 10.2 mph 10.2 mph 52 % 0 in
16:06 70.3 °F 51.3 °F 29.6 in ESE 9.2 mph 9.2 mph 51 % 0 in
16:11 70.5 °F 52 °F 29.6 in ESE 9.2 mph 9.2 mph 52 % 0 in
16:16 70.2 °F 51.6 °F 29.6 in ENE 11.5 mph 11.5 mph 52 % 0 in
16:21 69.8 °F 51.4 °F 29.6 in ESE 9.2 mph 9.2 mph 52 % 0 in
16:26 70 °F 52.2 °F 29.6 in ESE 12.7 mph 12.7 mph 53 % 0 in
16:31 69.8 °F 52 °F 29.6 in ESE 10.4 mph 10.4 mph 53 % 0 in
16:36 70.2 °F 52.7 °F 29.6 in ESE 9.2 mph 9.2 mph 54 % 0 in
16:41 70.2 °F 52.2 °F 29.6 in SSE 5.8 mph 5.8 mph 53 % 0 in
16:46 70 °F 52.5 °F 29.6 in SE 10.4 mph 10.4 mph 54 % 0 in
16:52 70 °F 52.5 °F 29.6 in ESE 12.7 mph 12.7 mph 54 % 0 in
16:57 69.8 °F 52.9 °F 29.6 in ESE 11.5 mph 11.5 mph 55 % 0 in
17:02 69.1 °F 52.7 °F 29.6 in SE 10.4 mph 10.4 mph 56 % 0 in
17:07 69.3 °F 53.4 °F 29.6 in ESE 6.9 mph 7.4 mph 57 % 0 in
17:12 68.7 °F 52.9 °F 29.6 in ESE 10.4 mph 10.4 mph 57 % 0 in
17:17 68.5 °F 53.2 °F 29.6 in SE 9.2 mph 9.2 mph 58 % 0 in
17:22 68.4 °F 53.1 °F 29.6 in ESE 13.2 mph 13.2 mph 58 % 0 in
17:27 68 °F 52.7 °F 29.6 in East 10.4 mph 10.4 mph 58 % 0 in
17:32 68 °F 53.1 °F 29.6 in East 7.8 mph 7.8 mph 59 % 0 in
17:37 68.4 °F 54 °F 29.6 in South 6.9 mph 6.9 mph 60 % 0 in
17:42 68.5 °F 53.6 °F 29.6 in East 10.4 mph 10.4 mph 59 % 0 in
17:47 68.2 °F 53.2 °F 29.6 in ESE 8.1 mph 8.1 mph 59 % 0 in
17:52 67.5 °F 53.1 °F 29.6 in ENE 11.5 mph 11.5 mph 60 % 0 in
17:57 67.6 °F 53.8 °F 29.6 in SSE 6.2 mph 6.2 mph 61 % 0 in
18:03 67.8 °F 54 °F 29.6 in ESE 10.4 mph 10.4 mph 61 % 0 in
18:08 67.6 °F 53.8 °F 29.6 in ESE 9 mph 9 mph 61 % 0 in
18:13 67.1 °F 53.2 °F 29.6 in ENE 8.1 mph 8.1 mph 61 % 0 in
18:18 67.3 °F 53.8 °F 29.6 in ESE 11.5 mph 11.5 mph 62 % 0 in
18:23 67.3 °F 53.8 °F 29.6 in ESE 6.2 mph 6.4 mph 62 % 0 in
18:28 66.9 °F 53.4 °F 29.6 in ESE 10.4 mph 10.4 mph 62 % 0 in
18:33 66.7 °F 53.2 °F 29.6 in ESE 9.2 mph 9.2 mph 62 % 0 in
18:38 66.4 °F 53.4 °F 29.6 in ESE 10.4 mph 10.4 mph 63 % 0 in
18:43 66.4 °F 53.4 °F 29.6 in ENE 8.1 mph 8.1 mph 63 % 0 in
18:48 66.4 °F 53.4 °F 29.6 in East 7.4 mph 9 mph 63 % 0 in
18:53 65.8 °F 53.2 °F 29.6 in East 9.2 mph 9.2 mph 64 % 0 in
18:58 65.8 °F 53.8 °F 29.6 in East 4.6 mph 4.6 mph 65 % 0 in
19:04 66 °F 54 °F 29.6 in East 5.8 mph 5.8 mph 65 % 0 in
19:09 65.7 °F 53.1 °F 29.6 in ESE 11.5 mph 11.5 mph 64 % 0 in
19:14 65.7 °F 53.1 °F 29.6 in SE 9.2 mph 9.2 mph 64 % 0 in
19:19 65.7 °F 53.1 °F 29.6 in ESE 8.1 mph 8.1 mph 64 % 0 in
19:20 60.4 °F 54.1 °F 29.6 in NE 2 mph 6 mph 80 % 0 in
19:25 65.7 °F 53.1 °F 29.6 in East 3 mph 8 mph 64 % 0 in
19:30 65.1 °F 52.2 °F 29.6 in East 5.8 mph 5.8 mph 63 % 0 in
19:35 64.9 °F 52.5 °F 29.6 in ENE 2 mph 6 mph 64 % 0 in
19:40 64.8 °F 52.3 °F 29.6 in NNE 7.6 mph 7.6 mph 64 % 0 in
19:45 64.6 °F 52.2 °F 29.6 in East 5.9 mph 5.9 mph 64 % 0 in
19:50 64.2 °F 52.2 °F 29.6 in ENE 4.6 mph 4.6 mph 65 % 0 in
19:55 64.2 °F 52.2 °F 29.6 in East 5 mph 6 mph 65 % 0 in
20:00 64 °F 52.3 °F 29.6 in ESE 6.9 mph 6.9 mph 66 % 0 in
20:05 64 °F 52.3 °F 29.6 in ESE 7.4 mph 7.4 mph 66 % 0 in
20:10 63.9 °F 52.3 °F 29.6 in ENE 11.5 mph 11.5 mph 66 % 0 in
20:15 63.7 °F 52.2 °F 29.6 in ENE 8.1 mph 8.1 mph 66 % 0 in
20:20 63.5 °F 52.3 °F 29.6 in ENE 8.1 mph 8.1 mph 67 % 0 in
20:22 63.3 °F 52.2 °F 29.6 in East 10.4 mph 10.4 mph 67 % 0 in
20:27 63.1 °F 52.9 °F 29.6 in East 9.2 mph 9.2 mph 69 % 0 in
20:30 59.9 °F 53.4 °F 29.6 in NE 3 mph 6 mph 79 % 0 in
20:32 63 °F 53.1 °F 29.6 in NE 8.5 mph 8.5 mph 70 % 0 in
20:37 62.8 °F 52.9 °F 29.6 in ENE 8.1 mph 8.1 mph 70 % 0 in
20:40 59.7 °F 53.2 °F 29.6 in NE 3 mph 4 mph 79 % 0 in
20:42 62.6 °F 53.1 °F 29.6 in NNE 8.1 mph 8.1 mph 71 % 0 in
20:47 62.6 °F 53.1 °F 29.6 in ENE 8.5 mph 8.5 mph 71 % 0 in
20:50 59.7 °F 53.2 °F 29.6 in NE 5 mph 5 mph 79 % 0 in
20:53 62.4 °F 53.2 °F 29.6 in NNE 5.9 mph 5.9 mph 72 % 0 in
20:58 62.2 °F 53.4 °F 29.6 in East 6.9 mph 6.9 mph 73 % 0 in
21:00 59.5 °F 53.1 °F 29.6 in NE 3 mph 4 mph 79 % 0 in
21:03 62.1 °F 53.2 °F 29.6 in North 8.1 mph 8.1 mph 73 % 0 in
21:08 62.1 °F 53.8 °F 29.6 in NNE 5.8 mph 5.8 mph 74 % 0 in
21:10 59.4 °F 52.9 °F 29.6 in NE 5 mph 5 mph 79 % 0 in
21:13 61.9 °F 53.4 °F 29.6 in East 10.4 mph 10.4 mph 74 % 0 in
21:19 61.7 °F 53.8 °F 29.6 in NE 9.2 mph 9.2 mph 75 % 0 in
21:20 59.2 °F 52.7 °F 29.6 in NE 3 mph 6 mph 79 % 0 in
21:24 61.5 °F 53.4 °F 29.6 in ENE 6.9 mph 6.9 mph 75 % 0 in
21:29 61.5 °F 54 °F 29.6 in East 6.9 mph 6.9 mph 76 % 0 in
21:30 59.2 °F 52.7 °F 29.6 in NE 3 mph 4 mph 79 % 0 in
21:34 61.5 °F 54 °F 29.6 in ENE 4.6 mph 4.6 mph 76 % 0 in
21:39 61.5 °F 54 °F 29.6 in ENE 7.1 mph 7.1 mph 76 % 0 in
21:40 59 °F 52.9 °F 29.6 in ENE 5 mph 6 mph 80 % 0 in
21:44 61.3 °F 54.1 °F 29.6 in ENE 6 mph 6 mph 77 % 0 in
21:49 61.3 °F 54.1 °F 29.6 in ENE 3.5 mph 3.5 mph 77 % 0 in
21:50 59 °F 52.9 °F 29.6 in NE 3 mph 6 mph 80 % 0 in
21:54 61.2 °F 54 °F 29.6 in NNE 5.8 mph 5.8 mph 77 % 0 in
21:59 61.2 °F 54.1 °F 29.6 in East 5.8 mph 5.8 mph 78 % 0 in
22:00 58.8 °F 52.7 °F 29.6 in NE 3 mph 5 mph 80 % 0 in
22:04 61 °F 54.1 °F 29.6 in East 4.6 mph 4.6 mph 78 % 0 in
22:10 61 °F 54.1 °F 29.6 in NNE 4.7 mph 4.9 mph 78 % 0 in
22:15 60.8 °F 54 °F 29.6 in NNE 4.6 mph 4.6 mph 78 % 0 in
22:20 60.8 °F 54 °F 29.6 in NNE 5.8 mph 5.8 mph 78 % 0 in
22:25 60.8 °F 54.1 °F 29.6 in ENE 3 mph 6 mph 79 % 0 in
22:30 60.8 °F 54.1 °F 29.6 in NNE 5.8 mph 5.8 mph 79 % 0 in
22:35 60.8 °F 54.1 °F 29.6 in ENE 3 mph 10 mph 79 % 0 in
22:40 60.6 °F 54.1 °F 29.6 in NE 6.9 mph 6.9 mph 79 % 0 in
22:45 60.6 °F 54.1 °F 29.6 in NE 4.6 mph 4.6 mph 79 % 0 in
22:50 60.6 °F 54.1 °F 29.6 in NE 3 mph 6 mph 79 % 0 in
22:55 60.6 °F 54.1 °F 29.6 in NE 5 mph 6 mph 79 % 0 in
23:00 60.6 °F 54.1 °F 29.6 in NE 2 mph 6 mph 79 % 0 in
23:05 60.6 °F 54.1 °F 29.6 in ESE 4.6 mph 4.6 mph 79 % 0 in
23:10 60.6 °F 54.1 °F 29.6 in ENE 6.9 mph 6.9 mph 79 % 0 in
23:15 60.6 °F 54.1 °F 29.6 in ESE 6.2 mph 6.2 mph 79 % 0 in
23:20 60.8 °F 54.1 °F 29.6 in ENE 5.8 mph 5.8 mph 79 % 0 in
23:26 60.8 °F 54.1 °F 29.6 in ENE 4.6 mph 4.6 mph 79 % 0 in
23:30 58.5 °F 52.5 °F 29.6 in ENE 3 mph 4 mph 81 % 0 in
23:31 60.8 °F 54.1 °F 29.6 in NE 6.2 mph 6.2 mph 79 % 0 in
23:36 60.6 °F 54.1 °F 29.6 in NNE 3.5 mph 3.5 mph 79 % 0 in
23:40 58.5 °F 52.5 °F 29.6 in ENE 3 mph 4 mph 81 % 0 in
23:41 60.6 °F 54.1 °F 29.6 in NNE 5.8 mph 5.8 mph 79 % 0 in
23:46 60.4 °F 54 °F 29.6 in NNE 6.9 mph 6.9 mph 79 % 0 in
23:50 58.5 °F 52.5 °F 29.6 in ENE 3 mph 4 mph 81 % 0 in
23:51 60.4 °F 54 °F 29.6 in NNE 4 mph 4 mph 79 % 0 in
23:57 60.4 °F 54 °F 29.6 in East 4.7 mph 4.7 mph 79 % 0 in
Meteo Sesrovires
Elogis d' Weather Underground - 3.5 mb

Guio original per  Jim McMurry - jmcmurry@mwt.net Adaptat per a la plantilla per  Wim van der Kuil - Leuven-Template.eu

Trobareu la nostra informacio del temps tambe a:

Weather Underground

AWEKAS